Time;durP1;ratioP1;P1;durP2;ratioP2;P2;SDS_P1;SDS_P2;PMS_P1;PMS_P2;Temp;Humidity;BMP_temperature;BMP_pressure;BME280_temperature;BME280_humidity;BME280_pressure;Samples;Min_cycle;Max_cycle;Signal;HPM_P1;HPM_P2
2022/07/30 00:02:52;;;;;;;9.40;2.42;;;;;;;19.04;54.16;100181.83;2224817;80;32964;-60
2022/07/30 00:05:53;;;;;;;7.35;2.75;;;;;;;19.03;54.23;100180.11;2225104;80;29615;-63
2022/07/30 00:08:54;;;;;;;3.02;1.92;;;;;;;19.02;54.23;100170.75;2224965;80;27682;-61
2022/07/30 00:11:56;;;;;;;6.40;2.50;;;;;;;19.01;54.31;100176.66;2200263;80;28474;-64
2022/07/30 00:14:58;;;;;;;3.40;2.20;;;;;;;19.00;54.27;100169.50;2225314;79;31033;-63
2022/07/30 00:17:59;;;;;;;8.95;2.55;;;;;;;19.01;54.27;100170.38;2220966;80;32985;-61
2022/07/30 00:21:01;;;;;;;3.92;2.22;;;;;;;19.01;54.29;100162.24;2201473;80;28992;-60
2022/07/30 00:24:04;;;;;;;6.97;2.10;;;;;;;19.02;54.36;100163.45;2222363;80;27675;-61
2022/07/30 00:27:05;;;;;;;3.33;2.40;;;;;;;19.02;54.31;100163.45;2195860;81;29154;-60
2022/07/30 00:30:08;;;;;;;5.20;2.80;;;;;;;19.02;54.32;100153.95;2242588;79;31446;-60
2022/07/30 00:33:09;;;;;;;7.00;2.55;;;;;;;19.03;54.32;100150.75;2242690;79;33347;-60
2022/07/30 00:36:10;;;;;;;4.80;2.47;;;;;;;19.03;54.39;100143.97;2242764;79;29068;-60
2022/07/30 00:39:11;;;;;;;6.17;2.55;;;;;;;19.01;54.38;100143.23;2242721;79;27626;-60
2022/07/30 00:42:13;;;;;;;5.60;2.70;;;;;;;18.98;54.36;100148.42;2242752;78;28768;-60
2022/07/30 00:45:16;;;;;;;5.85;2.70;;;;;;;18.96;54.39;100154.47;2242170;79;32255;-60
2022/07/30 00:48:18;;;;;;;5.85;2.85;;;;;;;18.92;54.42;100151.14;2252922;78;32992;-60
2022/07/30 00:51:19;;;;;;;7.75;2.40;;;;;;;18.91;54.49;100148.58;2235671;79;29131;-60
2022/07/30 00:54:21;;;;;;;6.87;2.40;;;;;;;18.89;54.53;100140.55;2269259;78;27684;-60
2022/07/30 00:57:23;;;;;;;5.10;2.47;;;;;;;18.85;54.52;100136.89;2268894;78;29710;-60
2022/07/30 01:00:25;;;;;;;6.58;2.47;;;;;;;18.86;54.58;100135.41;2269281;78;32192;-61
2022/07/30 01:03:27;;;;;;;3.90;2.00;;;;;;;18.85;54.64;100136.89;2268940;78;34206;-60
2022/07/30 01:06:28;;;;;;;6.60;2.55;;;;;;;18.85;54.67;100130.10;2268972;78;30354;-61
2022/07/30 01:09:29;;;;;;;3.83;2.90;;;;;;;18.84;54.67;100127.90;2237572;79;27624;-61
2022/07/30 01:12:31;;;;;;;4.50;2.58;;;;;;;18.83;54.74;100128.37;2269349;78;29283;-61
2022/07/30 01:15:34;;;;;;;8.25;2.80;;;;;;;18.82;54.73;100125.30;2268841;78;31884;-61
2022/07/30 01:22:02;;;;;;;6.62;2.75;;;;;;;18.80;54.78;100137.30;2269017;78;30199;-61
2022/07/30 01:25:18;;;;;;;10.25;2.45;;;;;;;18.77;54.87;100134.84;2269260;78;27616;-63
2022/07/30 01:28:27;;;;;;;6.75;2.67;;;;;;;18.77;54.96;100132.13;2268946;78;28644;-61
2022/07/30 01:31:29;;;;;;;5.28;2.30;;;;;;;18.75;55.00;100133.62;2269028;78;31063;-60
2022/07/30 01:34:33;;;;;;;7.83;2.45;;;;;;;18.76;55.08;100131.77;2238941;78;33355;-61
2022/07/30 01:37:36;;;;;;;4.40;2.70;;;;;;;18.76;55.10;100115.48;2269181;78;29040;-60
2022/07/30 01:40:39;;;;;;;3.45;2.30;;;;;;;18.76;55.12;100125.86;2269436;78;27693;-60
2022/07/30 01:43:41;;;;;;;4.78;2.42;;;;;;;18.76;55.21;100117.71;2269279;78;29149;-61
2022/07/30 01:46:43;;;;;;;3.35;2.55;;;;;;;18.76;55.22;100115.00;2269110;78;31412;-60
2022/07/30 01:49:46;;;;;;;4.60;2.50;;;;;;;18.75;55.25;100103.78;2237687;78;33361;-60
2022/07/30 01:52:51;;;;;;;5.75;2.55;;;;;;;18.76;55.27;100105.98;2228063;79;29637;-61
2022/07/30 01:55:53;;;;;;;;;;;;;;;18.75;55.29;100104.26;2231602;79;27685;-60
2022/07/30 01:58:56;;;;;;;8.50;2.60;;;;;;;18.77;55.40;100104.98;2228499;79;28508;-60
2022/07/30 02:01:58;;;;;;;8.48;2.52;;;;;;;18.73;55.35;100098.98;2228855;79;31041;-60
2022/07/30 02:05:00;;;;;;;5.30;2.40;;;;;;;18.74;55.37;100102.06;2228641;79;33204;-60
2022/07/30 02:08:12;;;;;;;9.18;3.00;;;;;;;18.75;55.38;100098.35;2228856;79;29063;-61
2022/07/30 02:12:27;;;;;;;6.58;2.85;;;;;;;18.77;55.40;100094.13;2229013;79;27687;-61
2022/07/30 02:14:27;;;;;;;6.17;2.90;;;;;;;18.77;55.40;100101.80;2206875;79;29882;-61
2022/07/30 02:17:34;;;;;;;5.03;2.30;;;;;;;18.78;55.42;100092.63;2242418;78;31015;-60
2022/07/30 02:20:35;;;;;;;6.10;2.25;;;;;;;18.80;55.49;100097.43;2269122;78;34251;-60
2022/07/30 02:23:43;;;;;;;6.45;2.65;;;;;;;18.81;55.45;100094.23;2269009;78;30336;-60
2022/07/30 02:26:49;;;;;;;6.58;2.47;;;;;;;18.82;55.48;100095.95;2269272;78;27654;-60
2022/07/30 02:29:51;;;;;;;4.42;2.47;;;;;;;18.81;55.48;100100.50;2269291;78;28665;-60
2022/07/30 02:32:57;;;;;;;5.05;2.58;;;;;;;18.81;55.47;100092.88;2269281;78;31028;-60
2022/07/30 02:35:59;;;;;;;5.30;2.60;;;;;;;18.81;55.50;100092.37;2267946;78;33350;-60
2022/07/30 02:39:02;;;;;;;5.00;2.67;;;;;;;18.83;55.55;100086.82;2269271;78;28325;-60
2022/07/30 02:42:06;;;;;;;4.67;2.83;;;;;;;18.84;55.55;100085.83;2269509;78;27675;-61
2022/07/30 02:45:09;;;;;;;6.15;3.33;;;;;;;18.82;55.61;100085.09;2269180;78;29042;-61
2022/07/30 02:48:13;;;;;;;4.28;2.77;;;;;;;18.83;55.73;100084.11;2246932;78;31856;-60
2022/07/30 02:51:18;;;;;;;4.90;2.87;;;;;;;18.85;55.71;100079.89;2229299;79;32959;-63
2022/07/30 02:54:20;;;;;;;4.62;2.47;;;;;;;18.83;55.77;100071.89;2205254;79;28806;-63
2022/07/30 02:57:22;;;;;;;6.08;2.42;;;;;;;18.82;55.80;100075.09;2229803;79;27718;-62
2022/07/30 03:00:24;;;;;;;8.18;3.20;;;;;;;18.81;55.83;100068.45;2229751;79;29917;-63
2022/07/30 03:03:28;;;;;;;3.75;2.60;;;;;;;18.79;55.87;100065.01;2229983;79;30963;-63
2022/07/30 03:06:31;;;;;;;5.10;2.95;;;;;;;18.78;55.91;100069.56;2229473;79;33949;-63
2022/07/30 03:09:32;;;;;;;5.67;2.72;;;;;;;18.77;55.96;100063.80;2229859;79;29401;-65
2022/07/30 03:12:34;;;;;;;4.90;2.85;;;;;;;18.76;56.03;100063.91;2229610;79;27593;-60
2022/07/30 03:15:37;;;;;;;4.20;2.45;;;;;;;18.76;56.02;100062.56;2229869;79;29059;-61
2022/07/30 03:18:41;;;;;;;9.25;3.20;;;;;;;18.74;56.04;100064.06;2239787;79;31960;-60
2022/07/30 03:21:42;;;;;;;4.20;2.60;;;;;;;18.73;56.11;100054.69;2233414;78;33781;-64
2022/07/30 03:24:45;;;;;;;3.22;2.27;;;;;;;18.71;56.21;100058.02;2200683;80;30323;-64
2022/07/30 03:27:48;;;;;;;5.28;2.50;;;;;;;18.70;56.19;100058.54;2257245;78;27622;-65
2022/07/30 03:30:51;;;;;;;9.55;2.30;;;;;;;18.71;56.28;100063.45;2200594;80;29962;-64
2022/07/30 03:33:53;;;;;;;5.33;2.37;;;;;;;18.70;56.26;100052.27;2256828;78;31836;-62
2022/07/30 03:36:56;;;;;;;6.08;2.60;;;;;;;18.69;56.29;100050.03;2201242;80;33059;-63
2022/07/30 03:39:58;;;;;;;2.83;2.25;;;;;;;18.71;56.34;100057.55;2202531;80;30270;-64
2022/07/30 03:42:59;;;;;;;4.12;2.83;;;;;;;18.73;56.32;100051.97;2263078;78;27587;-61
2022/07/30 03:46:05;;;;;;;4.83;2.22;;;;;;;18.72;56.35;100052.96;2263603;78;29059;-61
2022/07/30 03:49:09;;;;;;;6.37;2.60;;;;;;;18.72;56.33;100052.48;2243172;78;31163;-62
2022/07/30 03:52:12;;;;;;;5.22;2.27;;;;;;;18.74;56.38;100050.97;2256787;78;33063;-61
2022/07/30 03:55:14;;;;;;;11.70;3.58;;;;;;;18.76;56.35;100047.16;2242102;79;29903;-62
2022/07/30 03:58:17;;;;;;;6.83;2.85;;;;;;;18.76;56.39;100040.37;2242145;79;27622;-63
2022/07/30 04:01:21;;;;;;;7.00;3.02;;;;;;;18.79;56.36;100038.72;2242410;79;28664;-65
2022/07/30 04:04:23;;;;;;;4.30;2.58;;;;;;;18.82;56.37;100037.60;2215423;79;31778;-66
2022/07/30 04:07:25;;;;;;;5.95;2.65;;;;;;;18.86;56.34;100046.32;2242145;79;33050;-63
2022/07/30 04:10:27;;;;;;;6.10;2.87;;;;;;;18.88;56.29;100045.69;2242378;79;29873;-62
2022/07/30 04:13:28;;;;;;;6.08;2.20;;;;;;;18.91;56.34;100038.64;2242641;79;27707;-61
2022/07/30 04:16:46;;;;;;;6.53;2.65;;;;;;;18.92;56.32;100030.86;2241152;79;29059;-67
2022/07/30 04:19:51;;;;;;;4.62;2.08;;;;;;;18.94;56.31;100031.59;2225748;80;31470;-60
2022/07/30 04:22:53;;;;;;;6.47;2.42;;;;;;;18.96;56.33;100026.88;2162871;82;32896;-60
2022/07/30 04:25:55;;;;;;;4.70;2.20;;;;;;;18.98;56.29;100027.13;2150608;82;29457;-65
2022/07/30 04:28:58;;;;;;;4.12;2.37;;;;;;;19.01;56.22;100024.63;2186232;81;27591;-64
2022/07/30 04:32:00;;;;;;;5.15;2.50;;;;;;;19.05;56.20;100025.20;2163235;82;28628;-61
2022/07/30 04:35:03;;;;;;;5.47;2.65;;;;;;;19.10;56.12;100023.81;2150572;82;32351;-63
2022/07/30 04:38:04;;;;;;;7.28;2.37;;;;;;;19.14;56.07;100017.59;2162891;82;33808;-62
2022/07/30 04:41:06;;;;;;;3.40;2.30;;;;;;;19.19;56.00;100026.20;2163266;82;29462;-62
2022/07/30 04:44:07;;;;;;;3.17;2.25;;;;;;;19.25;55.96;100031.56;2163073;82;27655;-62
2022/07/30 04:47:09;;;;;;;6.08;2.30;;;;;;;19.31;55.87;100026.91;2193712;79;29419;-66
2022/07/30 04:50:12;;;;;;;3.62;2.42;;;;;;;19.35;55.79;100027.00;2242364;79;32197;-61
2022/07/30 04:53:15;;;;;;;7.37;2.20;;;;;;;19.42;55.68;100031.37;2234959;79;32983;-65
2022/07/30 04:56:20;;;;;;;5.40;2.27;;;;;;;19.47;55.64;100031.81;2235107;79;29087;-63
2022/07/30 04:59:24;;;;;;;3.50;2.05;;;;;;;19.54;55.52;100030.23;2235111;79;27715;-62
2022/07/30 05:02:29;;;;;;;4.08;2.27;;;;;;;19.58;55.27;100034.39;2235625;79;28630;-66
2022/07/30 05:05:32;;;;;;;7.00;2.50;;;;;;;19.65;55.31;100029.77;2234766;79;32256;-64
2022/07/30 05:08:34;;;;;;;5.00;2.35;;;;;;;19.70;55.17;100029.69;2235148;79;32954;-61
2022/07/30 05:11:37;;;;;;;8.05;2.37;;;;;;;19.77;55.08;100035.93;2234954;79;31109;-63
2022/07/30 05:14:41;;;;;;;6.35;2.20;;;;;;;19.82;54.84;100033.13;2112584;84;27733;-65
2022/07/30 05:17:44;;;;;;;3.85;2.30;;;;;;;19.88;54.76;100033.94;2094240;84;32295;-65
2022/07/30 05:20:45;;;;;;;2.58;1.98;;;;;;;19.95;54.64;100036.09;2112341;84;31908;-64
2022/07/30 05:23:47;;;;;;;3.77;2.20;;;;;;;20.03;54.58;100041.66;2145843;82;33590;-66
2022/07/30 05:26:49;;;;;;;3.55;2.55;;;;;;;20.07;54.41;100041.73;2146362;82;29431;-65
2022/07/30 05:29:51;;;;;;;7.60;2.30;;;;;;;20.10;54.29;100040.60;2146722;82;27848;-65
2022/07/30 05:32:52;;;;;;;4.05;2.08;;;;;;;20.11;54.10;100045.01;2146388;82;28541;-61
2022/07/30 05:35:54;;;;;;;4.60;2.17;;;;;;;20.10;54.13;100048.25;2146042;82;31122;-65
2022/07/30 05:38:55;;;;;;;11.03;2.60;;;;;;;20.14;54.13;100052.41;2146266;82;34192;-62
2022/07/30 05:41:57;;;;;;;4.37;2.80;;;;;;;20.18;53.96;100059.27;2146316;82;29416;-62
2022/07/30 05:45:00;;;;;;;5.15;2.12;;;;;;;20.21;53.88;100062.20;2146372;82;28417;-64
2022/07/30 05:48:02;;;;;;;2.55;1.95;;;;;;;20.25;53.73;100059.55;2146264;82;29411;-67
2022/07/30 05:51:05;;;;;;;5.10;2.20;;;;;;;20.29;53.80;100058.23;2145909;82;32333;-65
2022/07/30 05:54:07;;;;;;;6.17;1.92;;;;;;;20.33;53.63;100062.39;2145733;82;33001;-62
2022/07/30 05:57:09;;;;;;;4.97;1.90;;;;;;;20.37;53.55;100060.22;2145724;82;29466;-65
2022/07/30 06:00:12;;;;;;;4.67;2.00;;;;;;;20.39;53.44;100064.17;2146003;82;27612;-67
2022/07/30 06:03:14;;;;;;;3.05;2.15;;;;;;;20.42;53.49;100055.21;2146182;82;29411;-67
2022/07/30 06:06:16;;;;;;;7.95;2.42;;;;;;;20.44;53.39;100049.61;2146060;82;31412;-64
2022/07/30 06:09:19;;;;;;;8.20;2.25;;;;;;;20.51;53.45;100048.55;2145751;82;33674;-65
2022/07/30 06:12:21;;;;;;;6.85;2.30;;;;;;;20.55;53.33;100048.10;2191432;81;30377;-65
2022/07/30 06:15:23;;;;;;;5.33;2.17;;;;;;;20.63;53.23;100048.72;2269029;78;27756;-67
2022/07/30 06:18:28;;;;;;;5.05;2.42;;;;;;;20.66;53.08;100041.63;2269180;78;28811;-66
2022/07/30 06:21:30;;;;;;;3.55;1.90;;;;;;;20.69;53.14;100035.86;2269015;78;31052;-61
2022/07/30 06:24:32;;;;;;;4.90;2.08;;;;;;;20.77;52.96;100026.98;2268526;78;34238;-66
2022/07/30 06:27:35;;;;;;;4.53;2.30;;;;;;;20.87;53.13;100033.75;2268818;78;30388;-66
2022/07/30 06:30:36;;;;;;;8.15;2.08;;;;;;;20.94;53.06;100031.64;2269004;78;27623;-66
2022/07/30 06:33:38;;;;;;;5.78;2.42;;;;;;;21.01;53.07;100032.41;2269162;78;30199;-65
2022/07/30 06:36:40;;;;;;;7.53;2.58;;;;;;;21.06;53.18;100035.03;2268760;78;31074;-66
2022/07/30 06:39:42;;;;;;;2.47;2.00;;;;;;;21.12;53.04;100036.28;2268781;78;33891;-64
2022/07/30 06:42:44;;;;;;;5.00;2.20;;;;;;;21.16;52.83;100034.98;2269315;78;29056;-61
2022/07/30 06:45:46;;;;;;;6.40;2.40;;;;;;;21.22;52.82;100025.34;2268818;78;27682;-66
2022/07/30 06:48:48;;;;;;;2.85;2.20;;;;;;;21.31;52.81;100031.25;2237472;79;29883;-60
2022/07/30 06:51:50;;;;;;;5.40;2.15;;;;;;;21.39;52.68;100032.69;2252581;78;31015;-63
2022/07/30 06:54:52;;;;;;;6.90;1.80;;;;;;;21.44;52.56;100028.13;2224837;80;33203;-68
2022/07/30 06:57:53;;;;;;;6.92;2.72;;;;;;;21.50;52.48;100037.07;2224716;80;29610;-64
2022/07/30 07:00:55;;;;;;;6.50;2.10;;;;;;;21.52;52.38;100032.33;2200815;80;27625;-66
2022/07/30 07:03:56;;;;;;;3.98;2.10;;;;;;;21.57;52.26;100037.30;2225044;80;30034;-61
2022/07/30 07:06:58;;;;;;;5.67;2.02;;;;;;;21.59;52.33;100031.20;2224846;80;31046;-66
2022/07/30 07:10:00;;;;;;;6.80;2.47;;;;;;;21.62;52.19;100025.96;2225164;80;33354;-62
2022/07/30 07:13:01;;;;;;;3.33;2.40;;;;;;;21.63;52.20;100029.05;2225116;80;29152;-63
2022/07/30 07:16:04;;;;;;;7.25;2.08;;;;;;;21.62;52.06;100020.52;2222739;80;27621;-62
2022/07/30 07:19:06;;;;;;;2.47;1.98;;;;;;;21.57;52.12;100020.95;2222225;80;28705;-60
2022/07/30 07:22:08;;;;;;;3.65;2.08;;;;;;;21.51;52.09;100027.88;2195742;81;31077;-60
2022/07/30 07:25:10;;;;;;;5.15;2.33;;;;;;;21.53;52.17;100024.50;2242456;79;34131;-62
2022/07/30 07:28:13;;;;;;;8.55;4.25;;;;;;;21.54;52.14;100026.70;2242294;79;29725;-60
2022/07/30 07:31:14;;;;;;;2.98;2.33;;;;;;;21.56;52.35;100026.05;2242547;79;27691;-63
2022/07/30 07:34:15;;;;;;;7.85;2.40;;;;;;;21.63;52.33;100029.92;2242092;79;30119;-62
2022/07/30 07:37:18;;;;;;;7.70;2.80;;;;;;;21.69;52.33;100033.36;2242368;79;31249;-60
2022/07/30 07:40:19;;;;;;;6.62;2.60;;;;;;;21.78;52.37;100029.37;2242417;79;33337;-61
2022/07/30 07:43:21;;;;;;;5.08;2.40;;;;;;;21.87;52.22;100029.78;2242049;79;30285;-62
2022/07/30 07:46:24;;;;;;;6.28;2.70;;;;;;;21.95;52.19;100030.36;2250691;78;36109;-62
2022/07/30 07:49:25;;;;;;;11.53;2.52;;;;;;;22.04;52.13;100026.70;2270011;78;28743;-60
2022/07/30 07:52:27;;;;;;;4.55;2.30;;;;;;;22.13;51.70;100024.38;2267806;77;31037;-61
2022/07/30 07:55:30;;;;;;;3.98;2.22;;;;;;;22.14;51.44;100026.09;2238130;79;33918;-62
2022/07/30 07:58:32;;;;;;;4.15;2.30;;;;;;;22.20;51.53;100021.03;2268898;78;31152;-61
2022/07/30 08:01:33;;;;;;;5.90;3.15;;;;;;;22.22;51.58;100017.11;2269312;78;27585;-62
2022/07/30 08:04:35;;;;;;;4.22;2.50;;;;;;;22.28;51.52;100009.66;2238069;79;29060;-61
2022/07/30 08:07:37;;;;;;;6.00;2.30;;;;;;;22.38;51.60;100019.61;2269113;78;32272;-63
2022/07/30 08:10:40;;;;;;;3.62;2.30;;;;;;;22.46;51.47;100016.45;2268802;78;33729;-62
2022/07/30 08:13:42;;;;;;;3.30;2.03;;;;;;;22.51;51.42;100014.60;2237714;79;30233;-63
2022/07/30 08:16:44;;;;;;;2.62;2.30;;;;;;;22.57;51.08;100006.30;2269678;78;27672;-62
2022/07/30 08:19:45;;;;;;;3.72;2.55;;;;;;;22.63;51.13;100011.62;2269173;78;28655;-62
2022/07/30 08:22:47;;;;;;;3.90;2.62;;;;;;;22.72;51.16;100014.73;2268886;78;31720;-62
2022/07/30 08:25:48;;;;;;;5.42;3.08;;;;;;;22.80;51.01;100016.15;2269254;78;34105;-63
2022/07/30 08:28:51;;;;;;;4.35;2.25;;;;;;;22.88;51.04;100019.42;2269202;78;30174;-65
2022/07/30 08:31:52;;;;;;;4.28;2.70;;;;;;;22.97;50.89;100012.12;2269342;78;27698;-61
2022/07/30 08:34:54;;;;;;;3.33;2.25;;;;;;;23.09;51.00;100016.27;2268799;78;29823;-60
2022/07/30 08:37:56;;;;;;;3.17;2.25;;;;;;;23.13;50.30;100012.19;2269142;78;31335;-61
2022/07/30 08:40:57;;;;;;;4.62;2.08;;;;;;;23.11;50.35;100011.50;2268702;78;34170;-61
2022/07/30 08:44:00;;;;;;;2.75;2.20;;;;;;;23.16;50.62;100011.86;2268750;78;30216;-62
2022/07/30 08:47:05;;;;;;;4.45;2.37;;;;;;;23.24;50.18;100015.16;2267858;78;27669;-61
2022/07/30 08:50:08;;;;;;;5.92;2.37;;;;;;;23.24;50.12;100020.63;2269515;78;29146;-61
2022/07/30 08:53:09;;;;;;;6.00;2.10;;;;;;;23.32;50.22;100015.17;2242786;78;31751;-60
2022/07/30 08:56:11;;;;;;;3.67;2.47;;;;;;;23.39;50.35;100014.52;2225179;80;33131;-61
2022/07/30 08:59:13;;;;;;;4.92;2.30;;;;;;;23.54;50.26;100006.01;2224976;80;29411;-60
2022/07/30 09:02:14;;;;;;;3.85;2.40;;;;;;;23.67;50.21;100010.46;2225453;80;27593;-61
2022/07/30 09:05:16;;;;;;;9.15;2.55;;;;;;;23.81;50.21;100017.65;2200612;80;28959;-61
2022/07/30 09:08:18;;;;;;;6.17;2.60;;;;;;;23.96;50.35;100013.24;2225030;80;31826;-59
2022/07/30 09:11:21;;;;;;;4.35;2.45;;;;;;;24.14;50.07;100016.84;2224951;79;32956;-61
2022/07/30 09:14:22;;;;;;;5.70;2.52;;;;;;;24.24;49.94;100016.14;2224882;80;29026;-61
2022/07/30 09:17:24;;;;;;;7.12;2.35;;;;;;;24.30;49.83;100015.95;2202111;80;27844;-64
2022/07/30 09:20:31;;;;;;;4.03;2.55;;;;;;;24.31;49.68;100015.80;2202150;80;29463;-63
2022/07/30 09:23:33;;;;;;;6.35;2.40;;;;;;;24.30;49.77;100017.33;2162638;81;31049;-64
2022/07/30 09:26:52;;;;;;;2.62;2.08;;;;;;;24.27;49.51;100026.22;2162445;81;34206;-63
2022/07/30 09:29:58;;;;;;;4.35;2.72;;;;;;;24.21;49.68;100026.94;2156715;81;29054;-66
2022/07/30 09:33:00;;;;;;;4.67;2.50;;;;;;;24.20;49.58;100031.19;2162802;81;27723;-62
2022/07/30 09:36:09;;;;;;;5.53;2.67;;;;;;;24.08;49.41;100039.76;2162651;81;28701;-69
2022/07/30 09:39:35;;;;;;;9.78;3.00;;;;;;;23.99;49.50;100042.16;2162808;82;31194;-60
2022/07/30 09:42:45;;;;;;;3.67;2.65;;;;;;;23.85;49.78;100036.81;2130425;82;33027;-62
2022/07/30 09:45:54;;;;;;;5.05;2.40;;;;;;;23.71;50.51;100041.05;2198875;80;29084;-71
2022/07/30 09:49:01;;;;;;;4.47;3.17;;;;;;;23.58;51.23;100040.17;2225107;80;27654;-62
2022/07/30 09:52:03;;;;;;;7.92;2.05;;;;;;;23.45;51.53;100040.67;2223163;79;29469;-60
2022/07/30 09:55:06;;;;;;;7.53;2.40;;;;;;;23.32;52.02;100043.87;2269019;78;32423;-61
2022/07/30 09:58:10;;;;;;;4.78;2.77;;;;;;;23.25;52.85;100041.97;2237785;79;33787;-60
2022/07/30 10:01:15;;;;;;;6.40;2.62;;;;;;;23.16;53.26;100046.52;2156041;81;31313;-61
2022/07/30 10:04:29;;;;;;;3.45;2.70;;;;;;;23.05;53.62;100045.80;2180865;81;27813;-61
2022/07/30 10:07:32;;;;;;;8.03;2.80;;;;;;;22.92;53.90;100052.20;2178641;81;27739;-61
2022/07/30 10:10:34;;;;;;;3.22;2.92;;;;;;;22.82;54.27;100051.48;2177699;81;31453;-63
2022/07/30 10:13:37;;;;;;;6.58;3.10;;;;;;;22.67;54.66;100051.24;2180959;81;32321;-61
2022/07/30 10:16:39;;;;;;;6.35;3.08;;;;;;;22.61;55.21;100056.81;2152405;81;30178;-60
2022/07/30 10:19:41;;;;;;;6.95;3.20;;;;;;;22.55;55.75;100054.22;2181641;81;28175;-61
2022/07/30 10:22:43;;;;;;;3.35;2.85;;;;;;;22.51;56.23;100050.61;2181348;81;29033;-60
2022/07/30 10:25:45;;;;;;;3.08;2.77;;;;;;;22.43;56.61;100048.69;2180988;81;31084;-60
2022/07/30 10:28:48;;;;;;;3.80;3.20;;;;;;;22.36;56.78;100052.53;2180736;81;34239;-61
2022/07/30 10:31:50;;;;;;;7.15;3.40;;;;;;;22.27;57.23;100042.06;2218434;78;29040;-60
2022/07/30 10:34:53;;;;;;;6.37;3.40;;;;;;;22.22;57.41;100040.83;2265474;78;28100;-63
2022/07/30 10:37:56;;;;;;;5.17;3.20;;;;;;;22.15;57.90;100032.42;2266003;78;28663;-61
2022/07/30 10:41:47;;;;;;;5.58;3.67;;;;;;;22.05;57.89;100029.78;2265564;78;32208;-60
2022/07/30 10:45:21;;;;;;;5.70;4.00;;;;;;;21.99;58.33;100031.77;2265301;78;35070;-60
2022/07/30 10:48:23;;;;;;;6.27;3.93;;;;;;;21.89;58.64;100026.92;2237587;78;30346;-62
2022/07/30 10:51:44;;;;;;;7.35;4.30;;;;;;;21.79;59.09;100021.02;2269212;78;27699;-62
2022/07/30 10:54:51;;;;;;;7.92;4.78;;;;;;;21.72;59.54;100028.13;2268059;77;29358;-60
2022/07/30 10:58:09;;;;;;;6.10;4.70;;;;;;;21.70;60.09;100032.35;2269184;78;32260;-60
2022/07/30 11:01:10;;;;;;;13.95;5.50;;;;;;;21.69;60.09;100031.16;2269473;78;33757;-61
2022/07/30 11:04:28;;;;;;;6.65;4.47;;;;;;;21.63;60.19;100031.77;2269274;78;28866;-60
2022/07/30 11:07:30;;;;;;;6.42;4.47;;;;;;;21.62;60.61;100030.05;2269261;78;27702;-61
2022/07/30 11:10:37;;;;;;;;;;;;;;;21.67;61.20;100026.36;2240080;79;28913;-60
2022/07/30 11:13:56;;;;;;;6.62;4.62;;;;;;;21.70;61.46;100024.70;2268217;78;31036;-60
2022/07/30 11:16:58;;;;;;;7.67;4.83;;;;;;;21.76;61.83;100024.58;2228711;79;33097;-64
2022/07/30 11:20:08;;;;;;;6.22;4.53;;;;;;;21.76;61.42;100019.13;2228464;79;29076;-60
2022/07/30 11:23:25;;;;;;;6.85;4.78;;;;;;;21.74;61.68;100008.88;2228665;79;27653;-60
2022/07/30 11:26:46;;;;;;;5.45;4.83;;;;;;;21.77;61.94;100013.50;2212858;79;30822;-61
2022/07/30 11:29:52;;;;;;;7.15;4.70;;;;;;;21.77;62.17;100010.77;2228508;79;31475;-60
2022/07/30 11:33:10;;;;;;;7.87;4.47;;;;;;;21.84;62.86;100006.94;2228534;79;33124;-66
2022/07/30 11:36:12;;;;;;;9.58;4.55;;;;;;;21.88;62.50;100001.50;2227348;79;29527;-61
2022/07/30 11:39:13;;;;;;;7.72;4.95;;;;;;;21.85;62.68;100006.77;2229036;79;27595;-60
2022/07/30 11:42:27;;;;;;;7.97;4.85;;;;;;;21.87;62.88;100001.67;2228297;79;30056;-60
2022/07/30 11:45:29;;;;;;;7.85;5.10;;;;;;;21.85;62.90;100001.80;2250514;78;31813;-60
2022/07/30 11:48:31;;;;;;;6.87;5.08;;;;;;;21.81;63.16;99992.25;2265405;78;32706;-60
2022/07/30 11:51:46;;;;;;;9.28;4.65;;;;;;;21.79;63.08;100000.56;2237307;79;29811;-60
2022/07/30 11:54:54;;;;;;;9.20;5.58;;;;;;;21.77;63.45;99997.66;2233601;78;27834;-60
2022/07/30 11:58:00;;;;;;;6.47;4.97;;;;;;;21.80;63.58;100005.53;2224590;80;29951;-61
2022/07/30 12:01:04;;;;;;;9.93;5.45;;;;;;;21.80;63.83;99995.47;2214277;80;32845;-60
2022/07/30 12:04:08;;;;;;;;;;;;;;;21.77;63.78;99998.50;2217082;80;32974;-61
2022/07/30 12:07:09;;;;;;;7.25;6.03;;;;;;;21.72;63.68;100002.72;2214317;80;29018;-60
2022/07/30 12:10:15;;;;;;;6.22;5.62;;;;;;;21.60;63.73;99997.97;2214399;80;27735;-62
2022/07/30 12:13:17;;;;;;;8.33;5.83;;;;;;;21.47;63.70;99995.13;2214386;80;28657;-61
2022/07/30 12:16:20;;;;;;;8.77;6.17;;;;;;;21.37;63.94;99997.91;2195586;80;28383;-60
2022/07/30 12:19:21;;;;;;;7.30;6.37;;;;;;;21.33;64.13;100001.98;2194106;81;35066;-61
2022/07/30 12:22:23;;;;;;;6.53;5.28;;;;;;;21.31;64.67;99994.95;2194713;81;30142;-61
2022/07/30 12:25:25;;;;;;;9.33;6.05;;;;;;;21.24;64.68;99999.67;2194916;81;27697;-60
2022/07/30 12:28:33;;;;;;;7.67;6.10;;;;;;;21.24;64.99;99991.98;2194366;81;29915;-60
2022/07/30 12:31:34;;;;;;;9.78;6.45;;;;;;;21.27;65.05;99993.05;2194319;81;31150;-62
2022/07/30 12:34:38;;;;;;;10.23;6.90;;;;;;;21.27;65.23;99988.09;2194563;81;34129;-62
2022/07/30 12:37:39;;;;;;;9.95;6.87;;;;;;;21.29;65.34;99989.67;2169383;81;29246;-60
2022/07/30 12:41:07;;;;;;;11.28;7.60;;;;;;;21.32;65.69;99987.13;2169005;81;28142;-61
2022/07/30 12:44:09;;;;;;;8.65;7.75;;;;;;;21.26;65.54;99984.52;2124488;82;28719;-61
2022/07/30 12:47:25;;;;;;;9.80;8.58;;;;;;;21.19;65.98;99977.95;2104357;84;31924;-60
2022/07/30 12:50:28;;;;;;;9.43;7.53;;;;;;;21.15;66.13;99980.14;2069760;86;33027;-61
2022/07/30 12:53:30;;;;;;;11.53;7.90;;;;;;;21.07;66.21;99976.82;2106182;84;29184;-59
2022/07/30 12:56:31;;;;;;;9.88;6.97;;;;;;;21.04;66.51;99981.20;2116943;84;27769;-59
2022/07/30 12:59:37;;;;;;;10.60;8.40;;;;;;;20.97;66.56;99977.88;2116836;84;29890;-58
2022/07/30 13:02:38;;;;;;;10.15;8.23;;;;;;;20.88;66.85;99984.61;2117622;82;31919;-60
2022/07/30 13:05:48;;;;;;;10.00;7.80;;;;;;;20.79;66.98;99977.33;2159904;82;33426;-59
2022/07/30 13:08:58;;;;;;;9.10;7.65;;;;;;;20.70;67.25;99974.97;2185415;81;29584;-59
2022/07/30 13:12:00;;;;;;;11.22;8.78;;;;;;;20.63;67.47;99980.67;2185337;81;27641;-59
2022/07/30 13:15:01;;;;;;;19.62;8.83;;;;;;;20.57;67.84;99973.09;2187303;81;28582;-59
2022/07/30 13:18:03;;;;;;;12.20;8.93;;;;;;;20.51;68.02;99970.47;2189015;81;31373;-59
2022/07/30 13:21:07;;;;;;;11.20;8.83;;;;;;;20.44;68.26;99972.06;2188587;81;35097;-59
2022/07/30 13:24:11;;;;;;;9.23;8.30;;;;;;;20.38;68.35;99980.32;2185922;81;29786;-60
2022/07/30 13:27:15;;;;;;;12.43;9.78;;;;;;;20.32;68.67;99979.05;2185290;81;28243;-59
2022/07/30 13:30:17;;;;;;;17.53;10.00;;;;;;;20.24;69.45;99983.52;2185209;81;29964;-59
2022/07/30 13:33:19;;;;;;;30.43;10.00;;;;;;;20.13;69.68;99977.73;2185718;81;31268;-58
2022/07/30 13:36:20;;;;;;;16.30;9.35;;;;;;;20.02;69.88;99981.50;2185256;81;33975;-58
2022/07/30 13:39:22;;;;;;;17.25;9.80;;;;;;;19.82;70.73;99977.41;2190012;78;29466;-59
2022/07/30 13:42:24;;;;;;;15.30;9.90;;;;;;;19.58;71.99;99970.53;2241309;79;27694;-59
2022/07/30 13:45:26;;;;;;;31.93;16.93;;;;;;;19.32;72.64;99978.38;2241257;79;30006;-60
2022/07/30 13:48:28;;;;;;;17.87;11.68;;;;;;;19.17;72.59;99979.30;2242016;79;31885;-60
2022/07/30 13:51:30;;;;;;;24.20;10.68;;;;;;;19.07;72.74;99975.69;2262638;78;34378;-60
2022/07/30 13:54:31;;;;;;;12.20;10.43;;;;;;;18.93;73.18;99977.77;2265263;78;30249;-60
2022/07/30 13:57:32;;;;;;;16.12;10.68;;;;;;;18.82;73.89;99974.66;2266100;78;27700;-59
2022/07/30 14:00:36;;;;;;;31.65;11.40;;;;;;;18.72;74.24;99978.34;2265564;78;29042;-60
2022/07/30 14:03:37;;;;;;;16.25;13.22;;;;;;;18.61;74.27;99982.03;2265884;78;31852;-60
2022/07/30 14:06:39;;;;;;;17.32;11.55;;;;;;;18.55;74.83;99977.14;2265973;78;33337;-59
2022/07/30 14:09:40;;;;;;;14.18;11.97;;;;;;;18.52;75.02;99981.00;2265643;78;29710;-59
2022/07/30 14:12:43;;;;;;;20.17;13.70;;;;;;;18.52;75.32;99986.42;2265957;78;27696;-59
2022/07/30 14:15:48;;;;;;;29.63;12.50;;;;;;;18.49;75.75;99984.81;2265547;78;29058;-59
2022/07/30 14:18:51;;;;;;;18.00;10.25;;;;;;;18.47;75.94;99980.02;2265475;78;32471;-61
2022/07/30 14:21:53;;;;;;;18.42;9.53;;;;;;;18.38;76.48;99973.55;2265477;78;34368;-61